Time;durP1;ratioP1;P1;durP2;ratioP2;P2;SDS_P1;SDS_P2;PMS_P1;PMS_P2;Temp;Humidity;BMP_temperature;BMP_pressure;BME280_temperature;BME280_humidity;BME280_pressure;Samples;Min_cycle;Max_cycle;Signal;HPM_P1;HPM_P2
2023/10/01 00:01:17;;;;;;;17.25;5.93;;;;;;;;;;5034885;28;20028;-68
2023/10/01 00:03:42;;;;;;;14.20;5.75;;;;;;;;;;5023604;28;20032;-69
2023/10/01 00:06:07;;;;;;;17.92;5.90;;;;;;;;;;5028394;28;20045;-69
2023/10/01 00:08:34;;;;;;;14.45;5.28;;;;;;;;;;5029601;28;20104;-68
2023/10/01 00:11:00;;;;;;;11.15;5.07;;;;;;;;;;5027747;28;20107;-68
2023/10/01 00:13:26;;;;;;;19.00;5.88;;;;;;;;;;5028903;28;20022;-68
2023/10/01 00:15:51;;;;;;;19.77;4.93;;;;;;;;;;5012461;28;20108;-67
2023/10/01 00:18:16;;;;;;;19.42;5.20;;;;;;;;;;5030644;28;20092;-67
2023/10/01 00:20:42;;;;;;;14.63;5.47;;;;;;;;;;5030217;28;20203;-69
2023/10/01 00:23:07;;;;;;;17.58;6.20;;;;;;;;;;5030610;28;20027;-68
2023/10/01 00:25:33;;;;;;;18.35;6.55;;;;;;;;;;5030634;28;20151;-68
2023/10/01 00:27:59;;;;;;;18.90;5.38;;;;;;;;;;5031332;28;20052;-66
2023/10/01 00:30:24;;;;;;;18.42;5.80;;;;;;;;;;5023974;28;20046;-66
2023/10/01 00:32:49;;;;;;;17.13;6.18;;;;;;;;;;5032319;28;20024;-67
2023/10/01 00:35:15;;;;;;;14.07;5.53;;;;;;;;;;5031163;28;20029;-66
2023/10/01 00:37:40;;;;;;;14.45;5.97;;;;;;;;;;5023749;28;20108;-70
2023/10/01 00:40:06;;;;;;;18.95;5.63;;;;;;;;;;5026661;28;20079;-69
2023/10/01 00:42:34;;;;;;;20.30;5.82;;;;;;;;;;5026472;28;20057;-68
2023/10/01 00:45:01;;;;;;;23.48;5.78;;;;;;;;;;5025579;28;20022;-68
2023/10/01 00:47:27;;;;;;;20.95;6.22;;;;;;;;;;5028149;28;20165;-69
2023/10/01 00:49:54;;;;;;;21.67;6.90;;;;;;;;;;5031002;28;20017;-68
2023/10/01 00:52:19;;;;;;;26.65;7.35;;;;;;;;;;5031282;28;20018;-67
2023/10/01 00:54:45;;;;;;;15.63;6.88;;;;;;;;;;5028617;28;20086;-67
2023/10/01 00:57:10;;;;;;;22.00;5.85;;;;;;;;;;5030159;28;20018;-68
2023/10/01 00:59:36;;;;;;;16.50;6.05;;;;;;;;;;5030482;28;20060;-68
2023/10/01 01:02:09;;;;;;;25.95;7.43;;;;;;;;;;5025512;28;20044;-68
2023/10/01 01:04:36;;;;;;;18.88;6.97;;;;;;;;;;5029658;28;20089;-68
2023/10/01 01:07:14;;;;;;;22.33;7.30;;;;;;;;;;5025802;28;20092;-68
2023/10/01 01:09:40;;;;;;;17.20;7.07;;;;;;;;;;5028246;28;20018;-68
2023/10/01 01:12:08;;;;;;;19.70;7.22;;;;;;;;;;5030541;28;20099;-69
2023/10/01 01:14:33;;;;;;;18.42;7.38;;;;;;;;;;5029652;28;20037;-68
2023/10/01 01:16:59;;;;;;;15.13;6.15;;;;;;;;;;4996804;28;20024;-68
2023/10/01 01:19:25;;;;;;;14.95;5.80;;;;;;;;;;5030091;28;20539;-68
2023/10/01 01:21:50;;;;;;;17.25;6.35;;;;;;;;;;5034167;28;20480;-66
2023/10/01 01:24:16;;;;;;;19.42;6.57;;;;;;;;;;5030169;28;20028;-67
2023/10/01 01:26:43;;;;;;;16.02;5.68;;;;;;;;;;5023173;28;20440;-67
2023/10/01 01:29:18;;;;;;;21.35;6.45;;;;;;;;;;5030454;28;20017;-67
2023/10/01 01:31:45;;;;;;;30.45;7.10;;;;;;;;;;5022294;28;20231;-67
2023/10/01 01:34:12;;;;;;;17.98;6.00;;;;;;;;;;5035617;28;20040;-68
2023/10/01 01:36:39;;;;;;;19.63;6.18;;;;;;;;;;5032420;28;20033;-67
2023/10/01 01:39:27;;;;;;;15.75;4.85;;;;;;;;;;5025493;28;20017;-67
2023/10/01 01:41:54;;;;;;;23.95;6.05;;;;;;;;;;5018100;28;20021;-68
2023/10/01 01:44:19;;;;;;;18.17;5.75;;;;;;;;;;5025077;28;20028;-68
2023/10/01 01:46:47;;;;;;;14.73;5.30;;;;;;;;;;5024162;28;20021;-66
2023/10/01 01:49:17;;;;;;;20.15;5.45;;;;;;;;;;5012121;28;20465;-69
2023/10/01 01:51:57;;;;;;;19.75;5.55;;;;;;;;;;5029861;28;20030;-66
2023/10/01 01:54:23;;;;;;;14.73;5.28;;;;;;;;;;5011591;28;20036;-68
2023/10/01 01:56:51;;;;;;;15.48;5.28;;;;;;;;;;5013943;28;20033;-69
2023/10/01 01:59:21;;;;;;;20.83;5.53;;;;;;;;;;5026261;28;20151;-68
2023/10/01 02:01:46;;;;;;;14.98;5.45;;;;;;;;;;5030322;28;20025;-68
2023/10/01 02:04:12;;;;;;;24.70;6.25;;;;;;;;;;5008499;28;20022;-69
2023/10/01 02:06:37;;;;;;;20.58;6.57;;;;;;;;;;5025966;28;20021;-69
2023/10/01 02:09:12;;;;;;;16.20;5.85;;;;;;;;;;5024208;28;20010;-68
2023/10/01 02:11:37;;;;;;;18.48;5.38;;;;;;;;;;5025338;28;20022;-70
2023/10/01 02:14:05;;;;;;;19.67;5.20;;;;;;;;;;5011933;28;20028;-66
2023/10/01 02:16:35;;;;;;;19.67;4.80;;;;;;;;;;5022955;28;20032;-67
2023/10/01 02:19:18;;;;;;;14.10;4.50;;;;;;;;;;5011981;28;20021;-68
2023/10/01 02:21:52;;;;;;;16.77;4.60;;;;;;;;;;5023622;28;20021;-69
2023/10/01 02:24:37;;;;;;;10.60;4.88;;;;;;;;;;5014428;28;20308;-69
2023/10/01 02:27:04;;;;;;;16.17;5.45;;;;;;;;;;5023689;28;20139;-68
2023/10/01 02:29:32;;;;;;;12.77;4.18;;;;;;;;;;5021997;28;20477;-69
2023/10/01 02:31:57;;;;;;;15.52;5.00;;;;;;;;;;5032599;28;20013;-70
2023/10/01 02:34:29;;;;;;;19.00;5.32;;;;;;;;;;5026014;28;20374;-68
2023/10/01 02:36:55;;;;;;;16.17;5.20;;;;;;;;;;5022819;28;20018;-68
2023/10/01 02:39:27;;;;;;;14.85;5.50;;;;;;;;;;5002363;28;20040;-69
2023/10/01 02:44:34;;;;;;;16.13;5.18;;;;;;;;;;5019060;28;20025;-70
2023/10/01 02:47:18;;;;;;;18.63;5.68;;;;;;;;;;5023400;28;20016;-67
2023/10/01 02:49:50;;;;;;;14.48;4.28;;;;;;;;;;5025291;28;20280;-68
2023/10/01 02:52:19;;;;;;;17.15;5.68;;;;;;;;;;5023207;28;20534;-69
2023/10/01 02:54:47;;;;;;;18.70;5.50;;;;;;;;;;5008792;28;20037;-70
2023/10/01 02:57:13;;;;;;;20.90;5.43;;;;;;;;;;5027644;28;20315;-66
2023/10/01 03:00:11;;;;;;;13.30;4.90;;;;;;;;;;5009994;28;20052;-68
2023/10/01 03:02:31;;;;;;;14.10;4.43;;;;;;;;;;5028248;28;20495;-69
2023/10/01 03:05:03;;;;;;;13.85;4.55;;;;;;;;;;5020491;28;20022;-65
2023/10/01 03:07:45;;;;;;;16.77;4.80;;;;;;;;;;5027134;28;20045;-68
2023/10/01 03:10:31;;;;;;;12.60;5.15;;;;;;;;;;5008225;28;20057;-67
2023/10/01 03:13:00;;;;;;;14.73;5.00;;;;;;;;;;5022902;28;20024;-68
2023/10/01 03:15:30;;;;;;;10.82;4.03;;;;;;;;;;5025586;28;20101;-69
2023/10/01 03:17:57;;;;;;;9.98;3.90;;;;;;;;;;5026077;28;20026;-69
2023/10/01 03:28:26;;;;;;;18.63;5.65;;;;;;;;;;5028055;28;20507;-69
2023/10/01 03:31:12;;;;;;;14.17;5.13;;;;;;;;;;5015950;28;20022;-68
2023/10/01 03:33:40;;;;;;;11.10;4.50;;;;;;;;;;5033066;28;20485;-64
2023/10/01 03:36:09;;;;;;;11.07;4.37;;;;;;;;;;5030055;28;20029;-69
2023/10/01 03:38:36;;;;;;;15.27;4.95;;;;;;;;;;5027884;28;20362;-68
2023/10/01 03:41:07;;;;;;;27.75;5.13;;;;;;;;;;5022441;28;20028;-67
2023/10/01 03:43:34;;;;;;;19.02;5.18;;;;;;;;;;5024351;28;20189;-68
2023/10/01 03:46:13;;;;;;;10.60;4.07;;;;;;;;;;5028343;28;20101;-67
2023/10/01 03:51:28;;;;;;;13.95;3.95;;;;;;;;;;4997021;28;20087;-68
2023/10/01 03:54:06;;;;;;;11.32;4.72;;;;;;;;;;5029378;28;20025;-67
2023/10/01 03:56:33;;;;;;;15.20;4.38;;;;;;;;;;5027814;28;20044;-68
2023/10/01 03:58:58;;;;;;;15.95;5.00;;;;;;;;;;5025637;28;20029;-69
2023/10/01 04:01:33;;;;;;;14.15;4.20;;;;;;;;;;5030995;28;20029;-67
2023/10/01 04:04:00;;;;;;;15.10;4.85;;;;;;;;;;5021312;28;20379;-70
2023/10/01 04:06:25;;;;;;;13.48;3.80;;;;;;;;;;5031563;28;20014;-69
2023/10/01 04:08:55;;;;;;;15.82;5.10;;;;;;;;;;5027539;28;20017;-65
2023/10/01 04:11:41;;;;;;;14.68;4.80;;;;;;;;;;5031999;28;20030;-69
2023/10/01 04:14:10;;;;;;;20.02;5.30;;;;;;;;;;5019972;28;20022;-68
2023/10/01 04:16:36;;;;;;;12.02;5.25;;;;;;;;;;5027427;28;20171;-69
2023/10/01 04:19:01;;;;;;;11.52;5.07;;;;;;;;;;5032582;28;20221;-67
2023/10/01 04:21:28;;;;;;;19.48;5.55;;;;;;;;;;5026318;28;20630;-68
2023/10/01 04:23:54;;;;;;;15.05;4.60;;;;;;;;;;5036171;28;20009;-69
2023/10/01 04:26:20;;;;;;;16.15;4.63;;;;;;;;;;5028497;28;20215;-68
2023/10/01 04:28:50;;;;;;;12.18;4.30;;;;;;;;;;5030791;28;20227;-68
2023/10/01 04:31:18;;;;;;;13.10;4.13;;;;;;;;;;5003126;28;20050;-69
2023/10/01 04:33:47;;;;;;;15.10;4.33;;;;;;;;;;5033221;28;20024;-69
2023/10/01 04:36:16;;;;;;;11.88;3.83;;;;;;;;;;5028317;28;20025;-69
2023/10/01 04:38:41;;;;;;;10.77;3.80;;;;;;;;;;5013987;28;20477;-68
2023/10/01 04:41:11;;;;;;;20.73;4.68;;;;;;;;;;5023885;28;20100;-68
2023/10/01 04:43:41;;;;;;;13.45;4.38;;;;;;;;;;5030058;28;20106;-69
2023/10/01 04:46:08;;;;;;;9.73;3.67;;;;;;;;;;5022947;28;20010;-66
2023/10/01 04:48:36;;;;;;;17.95;5.10;;;;;;;;;;5030119;28;20025;-67
2023/10/01 04:51:02;;;;;;;11.57;4.07;;;;;;;;;;5031602;28;20097;-68
2023/10/01 04:53:28;;;;;;;16.27;4.10;;;;;;;;;;5011580;28;20017;-68
2023/10/01 04:56:06;;;;;;;14.85;4.25;;;;;;;;;;5049597;23;20052;-65
2023/10/01 04:58:37;;;;;;;15.07;4.63;;;;;;;;;;5030925;28;20018;-65
2023/10/01 05:01:12;;;;;;;22.48;5.47;;;;;;;;;;5031556;28;20235;-65
2023/10/01 05:03:40;;;;;;;16.35;4.22;;;;;;;;;;5030649;28;20465;-66
2023/10/01 05:06:11;;;;;;;11.00;4.10;;;;;;;;;;5023671;28;20196;-62
2023/10/01 05:08:39;;;;;;;19.95;4.30;;;;;;;;;;5029504;28;20218;-60
2023/10/01 05:11:11;;;;;;;21.80;3.92;;;;;;;;;;5030685;28;20081;-65
2023/10/01 05:13:39;;;;;;;21.23;4.45;;;;;;;;;;5029879;28;20396;-65
2023/10/01 05:16:06;;;;;;;12.07;3.60;;;;;;;;;;5029203;28;20055;-64
2023/10/01 05:18:33;;;;;;;10.50;4.35;;;;;;;;;;5022929;28;20481;-65
2023/10/01 05:20:58;;;;;;;11.98;3.10;;;;;;;;;;5023512;28;20405;-63
2023/10/01 05:23:27;;;;;;;12.05;3.85;;;;;;;;;;5028472;28;20036;-66
2023/10/01 05:25:52;;;;;;;14.75;3.40;;;;;;;;;;5025745;28;20026;-66
2023/10/01 05:28:36;;;;;;;10.88;3.72;;;;;;;;;;5023307;28;20071;-67
2023/10/01 05:31:06;;;;;;;13.43;3.42;;;;;;;;;;5021221;28;20021;-65
2023/10/01 05:33:33;;;;;;;15.55;3.50;;;;;;;;;;5021312;28;20079;-64
2023/10/01 05:36:00;;;;;;;15.13;4.05;;;;;;;;;;5025547;28;20127;-66
2023/10/01 05:38:26;;;;;;;13.55;3.90;;;;;;;;;;5006035;28;20401;-64
2023/10/01 05:40:54;;;;;;;10.63;3.47;;;;;;;;;;5019418;28;20022;-65
2023/10/01 05:43:23;;;;;;;13.07;3.17;;;;;;;;;;5024643;28;20026;-66
2023/10/01 05:45:52;;;;;;;14.75;4.05;;;;;;;;;;5020334;28;20110;-66
2023/10/01 05:48:23;;;;;;;18.17;3.65;;;;;;;;;;5023695;28;20030;-65
2023/10/01 05:50:49;;;;;;;15.55;3.83;;;;;;;;;;5023319;28;20021;-66
2023/10/01 05:53:14;;;;;;;11.18;3.40;;;;;;;;;;5023149;28;20040;-66
2023/10/01 05:55:43;;;;;;;10.40;3.42;;;;;;;;;;5020768;28;20029;-65
2023/10/01 05:58:14;;;;;;;;;;;;;;;;;;5022682;28;20013;-65
2023/10/01 06:00:56;;;;;;;16.15;3.65;;;;;;;;;;5023545;28;19905;-66
2023/10/01 06:03:23;;;;;;;16.88;3.88;;;;;;;;;;5021939;28;20274;-66
2023/10/01 06:05:57;;;;;;;13.23;3.30;;;;;;;;;;5026214;28;20132;-63
2023/10/01 06:08:24;;;;;;;11.60;3.35;;;;;;;;;;5026752;28;20393;-65
2023/10/01 06:11:03;;;;;;;13.40;4.38;;;;;;;;;;5021416;28;20018;-62
2023/10/01 06:13:29;;;;;;;12.18;3.65;;;;;;;;;;5019341;28;20641;-64
2023/10/01 06:15:57;;;;;;;12.10;3.53;;;;;;;;;;5026599;28;20069;-64
2023/10/01 06:18:26;;;;;;;8.60;3.03;;;;;;;;;;5027986;28;20017;-64
2023/10/01 06:20:53;;;;;;;11.02;3.38;;;;;;;;;;5023202;28;20033;-64
2023/10/01 06:23:18;;;;;;;15.10;3.60;;;;;;;;;;5032676;28;20071;-66
2023/10/01 06:25:51;;;;;;;14.82;3.53;;;;;;;;;;5028782;28;20021;-67
2023/10/01 06:28:20;;;;;;;12.85;3.67;;;;;;;;;;5029647;28;20028;-66
2023/10/01 06:30:45;;;;;;;17.58;3.60;;;;;;;;;;5020929;28;20017;-66
2023/10/01 06:33:24;;;;;;;17.13;3.55;;;;;;;;;;5028955;28;20020;-64
2023/10/01 06:36:15;;;;;;;15.95;3.53;;;;;;;;;;5028675;28;20045;-66
2023/10/01 06:38:41;;;;;;;11.98;3.25;;;;;;;;;;5027370;28;20029;-65
2023/10/01 06:41:13;;;;;;;9.95;2.92;;;;;;;;;;5028933;28;20057;-66
2023/10/01 06:43:44;;;;;;;9.52;3.67;;;;;;;;;;5023847;28;20100;-65
2023/10/01 06:46:11;;;;;;;11.15;2.95;;;;;;;;;;5025325;28;20018;-63
2023/10/01 06:48:39;;;;;;;15.38;2.67;;;;;;;;;;5021983;28;20159;-66
2023/10/01 06:51:05;;;;;;;13.57;3.17;;;;;;;;;;5024000;28;20037;-67
2023/10/01 06:53:44;;;;;;;13.90;3.70;;;;;;;;;;5028397;28;20517;-63
2023/10/01 06:56:09;;;;;;;;;;;;;;;;;;5028374;28;20404;-66
2023/10/01 06:58:34;;;;;;;8.57;2.03;;;;;;;;;;5028232;28;20372;-66
2023/10/01 07:01:02;;;;;;;9.82;2.45;;;;;;;;;;5028271;28;20410;-66
2023/10/01 07:03:30;;;;;;;8.02;2.30;;;;;;;;;;5026456;28;20025;-67
2023/10/01 07:05:57;;;;;;;14.30;2.58;;;;;;;;;;5025282;28;20104;-65
2023/10/01 07:08:37;;;;;;;8.02;2.15;;;;;;;;;;5023664;28;20026;-61
2023/10/01 07:11:11;;;;;;;10.02;2.38;;;;;;;;;;5022171;28;20512;-64
2023/10/01 07:13:36;;;;;;;11.27;2.13;;;;;;;;;;5025081;28;20026;-66
2023/10/01 07:16:02;;;;;;;6.60;2.20;;;;;;;;;;5027815;28;20022;-64
2023/10/01 07:18:29;;;;;;;10.95;2.47;;;;;;;;;;5028971;28;20014;-66
2023/10/01 07:20:59;;;;;;;6.47;2.20;;;;;;;;;;5028909;28;20026;-66
2023/10/01 07:23:25;;;;;;;15.13;2.83;;;;;;;;;;5029418;28;20489;-66
2023/10/01 07:26:00;;;;;;;6.90;1.67;;;;;;;;;;5027507;28;20025;-63
2023/10/01 07:28:25;;;;;;;8.90;2.47;;;;;;;;;;5028096;28;20024;-65
2023/10/01 07:30:56;;;;;;;6.50;1.80;;;;;;;;;;5022225;28;20022;-65
2023/10/01 07:33:21;;;;;;;7.82;2.25;;;;;;;;;;5026799;28;20021;-65
2023/10/01 07:35:58;;;;;;;6.80;1.77;;;;;;;;;;5028926;28;20395;-70
2023/10/01 07:38:25;;;;;;;9.80;2.55;;;;;;;;;;5031417;28;20017;-65
2023/10/01 07:40:57;;;;;;;8.35;2.05;;;;;;;;;;5027987;28;20309;-68
2023/10/01 07:43:22;;;;;;;10.57;2.22;;;;;;;;;;5027285;28;20026;-67
2023/10/01 07:45:55;;;;;;;11.30;3.08;;;;;;;;;;5027876;28;20028;-62
2023/10/01 07:48:27;;;;;;;11.35;2.50;;;;;;;;;;5031733;28;20024;-64
2023/10/01 07:50:52;;;;;;;7.05;2.25;;;;;;;;;;5022276;28;20010;-65
2023/10/01 07:53:18;;;;;;;11.52;2.45;;;;;;;;;;5027399;28;20504;-67
2023/10/01 07:55:46;;;;;;;7.50;2.30;;;;;;;;;;5030375;28;20494;-64
2023/10/01 07:58:44;;;;;;;7.35;2.10;;;;;;;;;;5028008;28;20053;-65
2023/10/01 08:03:56;;;;;;;9.32;2.20;;;;;;;;;;5037445;28;20056;-65
2023/10/01 08:06:29;;;;;;;9.50;2.67;;;;;;;;;;5024429;28;20678;-65
2023/10/01 08:08:57;;;;;;;9.68;2.03;;;;;;;;;;5025283;28;20032;-65
2023/10/01 08:11:58;;;;;;;9.60;2.40;;;;;;;;;;5030387;28;20018;-66
2023/10/01 08:14:26;;;;;;;8.25;2.65;;;;;;;;;;5029036;28;20025;-65
2023/10/01 08:16:53;;;;;;;8.05;2.15;;;;;;;;;;5031077;28;20014;-66
2023/10/01 08:19:21;;;;;;;6.93;2.30;;;;;;;;;;5031259;28;20100;-67
2023/10/01 08:21:50;;;;;;;10.57;2.33;;;;;;;;;;5028536;28;20022;-65
2023/10/01 08:24:18;;;;;;;6.93;2.50;;;;;;;;;;5035181;28;20026;-66
2023/10/01 08:26:49;;;;;;;7.68;2.53;;;;;;;;;;5026877;28;20061;-64
2023/10/01 08:29:15;;;;;;;13.07;2.92;;;;;;;;;;5029481;28;20025;-63
2023/10/01 08:32:20;;;;;;;;;;;;;;;;;;;;;
2023/10/01 08:34:24;;;;;;;6.40;2.10;;;;;;;;;;5022273;28;20017;-67
2023/10/01 08:36:55;;;;;;;11.13;2.65;;;;;;;;;;5032344;28;20478;-64
2023/10/01 08:39:33;;;;;;;9.13;2.88;;;;;;;;;;5028138;28;20083;-66
2023/10/01 08:41:59;;;;;;;9.27;2.72;;;;;;;;;;5024474;28;20097;-64
2023/10/01 08:44:33;;;;;;;7.40;2.63;;;;;;;;;;5028715;28;20081;-66
2023/10/01 08:47:21;;;;;;;11.93;3.30;;;;;;;;;;5026432;28;20025;-68
2023/10/01 08:49:49;;;;;;;7.53;3.22;;;;;;;;;;5028889;28;20033;-66
2023/10/01 08:52:25;;;;;;;10.05;2.88;;;;;;;;;;5028534;28;20843;-67
2023/10/01 08:54:53;;;;;;;10.23;2.88;;;;;;;;;;5015618;28;20042;-67
2023/10/01 08:57:36;;;;;;;12.10;2.83;;;;;;;;;;5016751;28;20049;-66
2023/10/01 09:00:14;;;;;;;7.50;3.03;;;;;;;;;;5016974;28;20252;-68
2023/10/01 09:02:39;;;;;;;13.25;3.17;;;;;;;;;;5016671;28;20347;-66
2023/10/01 09:05:08;;;;;;;10.75;2.60;;;;;;;;;;5017597;28;20477;-65
2023/10/01 09:07:41;;;;;;;10.98;2.83;;;;;;;;;;5010692;28;20109;-64
2023/10/01 09:10:07;;;;;;;13.15;2.72;;;;;;;;;;5015972;28;20505;-64
2023/10/01 09:12:45;;;;;;;7.43;2.40;;;;;;;;;;5018406;28;20485;-64
2023/10/01 09:15:21;;;;;;;10.05;3.63;;;;;;;;;;5016752;28;20018;-66
2023/10/01 09:17:56;;;;;;;10.30;2.92;;;;;;;;;;5017478;28;20140;-65
2023/10/01 09:21:06;;;;;;;10.80;3.25;;;;;;;;;;5015999;28;20538;-64
2023/10/01 09:23:54;;;;;;;9.88;2.83;;;;;;;;;;5015545;28;20118;-67
2023/10/01 09:26:37;;;;;;;14.38;3.25;;;;;;;;;;5016593;28;20034;-67
2023/10/01 09:29:12;;;;;;;10.77;3.33;;;;;;;;;;5017355;28;20176;-65
2023/10/01 09:31:52;;;;;;;11.68;3.38;;;;;;;;;;5017825;28;20526;-66
2023/10/01 09:34:36;;;;;;;9.57;2.60;;;;;;;;;;5016784;28;20129;-65
2023/10/01 09:37:02;;;;;;;12.43;3.08;;;;;;;;;;5016675;28;20103;-65
2023/10/01 09:39:36;;;;;;;8.32;3.33;;;;;;;;;;5015564;28;20033;-64
2023/10/01 09:42:03;;;;;;;12.27;3.30;;;;;;;;;;5017947;28;20026;-66
2023/10/01 09:44:30;;;;;;;10.95;3.00;;;;;;;;;;5016706;28;20406;-65
2023/10/01 09:47:10;;;;;;;9.45;3.30;;;;;;;;;;5016340;28;20563;-66
2023/10/01 09:49:38;;;;;;;13.27;3.78;;;;;;;;;;5014683;28;20064;-66
2023/10/01 09:52:05;;;;;;;9.75;3.53;;;;;;;;;;5017731;28;20033;-67
2023/10/01 09:54:41;;;;;;;9.68;2.92;;;;;;;;;;5017169;28;20036;-64
2023/10/01 09:57:08;;;;;;;12.20;3.35;;;;;;;;;;5028169;28;20025;-64
2023/10/01 09:59:39;;;;;;;13.50;3.50;;;;;;;;;;5020969;28;20770;-66
2023/10/01 10:02:04;;;;;;;8.27;2.67;;;;;;;;;;5006067;28;20090;-66
2023/10/01 10:04:34;;;;;;;12.27;3.88;;;;;;;;;;5022606;28;20033;-65
2023/10/01 10:07:02;;;;;;;7.53;3.05;;;;;;;;;;5019885;28;20021;-64
2023/10/01 10:09:28;;;;;;;13.63;3.25;;;;;;;;;;5019866;28;20079;-66
2023/10/01 10:11:54;;;;;;;12.20;3.05;;;;;;;;;;5026582;28;20476;-66
2023/10/01 10:14:26;;;;;;;12.23;3.40;;;;;;;;;;5010734;28;20024;-66
2023/10/01 10:17:18;;;;;;;11.88;3.55;;;;;;;;;;5027281;28;20013;-63
2023/10/01 10:20:15;;;;;;;13.70;2.97;;;;;;;;;;5027743;28;20489;-66
2023/10/01 10:23:02;;;;;;;11.98;3.80;;;;;;;;;;5032534;28;20545;-66
2023/10/01 10:25:27;;;;;;;14.25;3.35;;;;;;;;;;5025027;28;20065;-65
2023/10/01 10:27:52;;;;;;;11.48;3.38;;;;;;;;;;5029100;28;20057;-65
2023/10/01 10:30:21;;;;;;;9.52;3.10;;;;;;;;;;5024391;28;20029;-63
2023/10/01 10:33:05;;;;;;;11.80;3.30;;;;;;;;;;5027532;28;20014;-65
2023/10/01 10:35:30;;;;;;;9.70;3.40;;;;;;;;;;5023810;28;20021;-66
2023/10/01 10:37:56;;;;;;;11.65;3.58;;;;;;;;;;5028481;28;20036;-64
2023/10/01 10:42:47;;;;;;;16.13;4.35;;;;;;;;;;5028307;28;20603;-67
2023/10/01 10:45:21;;;;;;;12.95;4.00;;;;;;;;;;5028182;28;20087;-64
2023/10/01 10:47:59;;;;;;;10.55;3.95;;;;;;;;;;5028863;28;20532;-67
2023/10/01 10:50:46;;;;;;;10.80;3.63;;;;;;;;;;5025403;28;20433;-66
2023/10/01 10:53:15;;;;;;;13.75;3.55;;;;;;;;;;5026691;28;20361;-67
2023/10/01 10:55:53;;;;;;;10.98;3.90;;;;;;;;;;5029106;28;20057;-65
2023/10/01 10:58:19;;;;;;;13.02;3.83;;;;;;;;;;5028070;28;20103;-65
2023/10/01 11:00:46;;;;;;;15.57;4.18;;;;;;;;;;5028295;28;20087;-66
2023/10/01 11:03:11;;;;;;;9.52;3.50;;;;;;;;;;5022716;28;20079;-66
2023/10/01 11:05:49;;;;;;;10.80;3.60;;;;;;;;;;5016705;28;20030;-66
2023/10/01 11:08:27;;;;;;;21.00;4.55;;;;;;;;;;5023686;28;20021;-65
2023/10/01 11:10:54;;;;;;;11.07;3.65;;;;;;;;;;5024996;28;20430;-66
2023/10/01 11:13:35;;;;;;;11.60;3.88;;;;;;;;;;5028921;28;20049;-65
2023/10/01 11:16:13;;;;;;;12.65;3.97;;;;;;;;;;5025263;28;20041;-66
2023/10/01 11:18:41;;;;;;;11.10;3.90;;;;;;;;;;5015046;28;20052;-65
2023/10/01 11:21:10;;;;;;;10.45;3.53;;;;;;;;;;5025397;28;20017;-66
2023/10/01 11:23:36;;;;;;;12.48;3.53;;;;;;;;;;5027745;28;20029;-66
2023/10/01 11:26:26;;;;;;;13.88;3.75;;;;;;;;;;5024542;28;20583;-64
2023/10/01 11:28:51;;;;;;;10.02;3.40;;;;;;;;;;5014489;28;20017;-69
2023/10/01 11:31:25;;;;;;;15.23;3.67;;;;;;;;;;5028214;28;20024;-65
2023/10/01 11:34:03;;;;;;;10.93;3.13;;;;;;;;;;5032090;28;20021;-66
2023/10/01 11:36:35;;;;;;;;;;;;;;;;;;5036114;28;20013;-67
2023/10/01 11:39:03;;;;;;;9.27;3.20;;;;;;;;;;5024842;28;19905;-65
2023/10/01 11:41:38;;;;;;;11.05;3.40;;;;;;;;;;5032239;28;20033;-66
2023/10/01 11:44:05;;;;;;;8.75;3.00;;;;;;;;;;5024447;28;20025;-67
2023/10/01 11:46:57;;;;;;;10.90;2.85;;;;;;;;;;5029485;28;20067;-66
2023/10/01 11:49:34;;;;;;;11.10;3.20;;;;;;;;;;5028474;28;20032;-65
2023/10/01 11:52:25;;;;;;;7.07;2.60;;;;;;;;;;5032079;28;20028;-65
2023/10/01 11:54:53;;;;;;;11.50;3.45;;;;;;;;;;5026373;28;20116;-69
2023/10/01 11:57:22;;;;;;;8.45;2.58;;;;;;;;;;5022592;28;20096;-67
2023/10/01 11:59:58;;;;;;;9.35;2.53;;;;;;;;;;5030705;28;20028;-65
2023/10/01 12:02:25;;;;;;;6.30;2.28;;;;;;;;;;5028460;28;20033;-67
2023/10/01 12:04:59;;;;;;;9.68;2.70;;;;;;;;;;5028158;28;20025;-67
2023/10/01 12:07:32;;;;;;;12.80;3.05;;;;;;;;;;5029809;28;20025;-68
2023/10/01 12:09:57;;;;;;;10.98;2.95;;;;;;;;;;5031635;28;20430;-67
2023/10/01 12:12:27;;;;;;;7.72;2.90;;;;;;;;;;5029238;28;20572;-66
2023/10/01 12:14:56;;;;;;;11.32;3.03;;;;;;;;;;5023052;28;20515;-68
2023/10/01 12:17:30;;;;;;;9.50;2.95;;;;;;;;;;5028133;28;20030;-66
2023/10/01 12:19:58;;;;;;;9.40;2.97;;;;;;;;;;5027102;28;20544;-64
2023/10/01 12:22:24;;;;;;;11.65;3.40;;;;;;;;;;5018320;28;20028;-67
2023/10/01 12:24:59;;;;;;;10.55;3.17;;;;;;;;;;5030492;28;20025;-67
2023/10/01 12:27:45;;;;;;;11.48;3.17;;;;;;;;;;5032223;28;20508;-67
2023/10/01 12:30:29;;;;;;;12.43;3.08;;;;;;;;;;5020887;28;20010;-68
2023/10/01 12:33:00;;;;;;;10.90;3.30;;;;;;;;;;5025064;28;20009;-66
2023/10/01 12:35:28;;;;;;;11.32;3.42;;;;;;;;;;5027698;28;20070;-67
2023/10/01 12:38:05;;;;;;;9.65;3.67;;;;;;;;;;5031271;28;20029;-67
2023/10/01 12:40:34;;;;;;;9.33;2.87;;;;;;;;;;5029269;28;20690;-68
2023/10/01 12:43:00;;;;;;;10.45;3.35;;;;;;;;;;5026326;28;20313;-67
2023/10/01 12:45:27;;;;;;;9.68;3.35;;;;;;;;;;5031209;28;20598;-68
2023/10/01 12:47:52;;;;;;;9.20;3.33;;;;;;;;;;5023807;28;20020;-67
2023/10/01 12:50:26;;;;;;;14.77;4.03;;;;;;;;;;5032088;28;20105;-68
2023/10/01 12:52:58;;;;;;;9.00;3.22;;;;;;;;;;5020994;28;20014;-68
2023/10/01 12:55:29;;;;;;;9.93;3.22;;;;;;;;;;5025039;28;20033;-65
2023/10/01 12:57:55;;;;;;;11.32;3.15;;;;;;;;;;5019741;28;20105;-64
2023/10/01 13:00:43;;;;;;;9.15;3.65;;;;;;;;;;5023751;28;20125;-65
2023/10/01 13:03:15;;;;;;;13.13;3.38;;;;;;;;;;5002594;28;20024;-65
2023/10/01 13:05:43;;;;;;;9.80;3.22;;;;;;;;;;5009566;28;20064;-67
2023/10/01 13:08:10;;;;;;;13.07;4.13;;;;;;;;;;5025461;28;20039;-66
2023/10/01 13:10:47;;;;;;;12.73;3.38;;;;;;;;;;5030772;28;20073;-67
2023/10/01 13:13:14;;;;;;;9.90;4.15;;;;;;;;;;5024081;28;20101;-66
2023/10/01 13:15:42;;;;;;;11.45;3.92;;;;;;;;;;5024172;28;20018;-65
2023/10/01 13:18:22;;;;;;;12.07;3.78;;;;;;;;;;5014316;28;20025;-65
2023/10/01 13:23:16;;;;;;;10.85;3.83;;;;;;;;;;5048223;28;20069;-65
2023/10/01 13:25:46;;;;;;;12.48;3.35;;;;;;;;;;5027998;28;20053;-65
2023/10/01 13:28:19;;;;;;;13.18;4.22;;;;;;;;;;5029687;28;20020;-68
2023/10/01 13:33:25;;;;;;;12.65;4.25;;;;;;;;;;5029284;28;20028;-65
2023/10/01 13:35:57;;;;;;;13.13;3.92;;;;;;;;;;5012583;28;20017;-66
2023/10/01 14:10:53;;;;;;;13.90;5.00;;;;;;;;;;5029041;28;20079;-66
2023/10/01 14:13:29;;;;;;;13.50;4.47;;;;;;;;;;5029512;28;20022;-67
2023/10/01 14:16:11;;;;;;;15.27;4.82;;;;;;;;;;5021450;28;20417;-65
2023/10/01 14:18:36;;;;;;;13.07;5.10;;;;;;;;;;5026818;28;20026;-65
2023/10/01 14:21:12;;;;;;;14.23;5.05;;;;;;;;;;5006641;28;20021;-65
2023/10/01 14:23:42;;;;;;;15.15;4.95;;;;;;;;;;5033815;28;20100;-67
2023/10/01 14:26:10;;;;;;;14.43;5.50;;;;;;;;;;5022888;28;20024;-65
2023/10/01 14:28:36;;;;;;;15.25;5.13;;;;;;;;;;5028915;28;20071;-65
2023/10/01 14:31:05;;;;;;;15.15;5.53;;;;;;;;;;5027450;28;20025;-65
2023/10/01 14:33:32;;;;;;;15.70;5.93;;;;;;;;;;5024838;28;20448;-65
2023/10/01 14:36:03;;;;;;;14.82;6.28;;;;;;;;;;5026838;28;20465;-67
2023/10/01 14:38:39;;;;;;;14.23;5.70;;;;;;;;;;5028885;28;20021;-64
2023/10/01 14:41:15;;;;;;;16.90;5.28;;;;;;;;;;5021651;28;20014;-64
2023/10/01 14:43:41;;;;;;;16.50;5.60;;;;;;;;;;5026259;28;20495;-66
2023/10/01 14:46:13;;;;;;;13.95;5.00;;;;;;;;;;5026753;28;20021;-65
2023/10/01 14:48:39;;;;;;;17.88;5.57;;;;;;;;;;5027569;28;20018;-65
2023/10/01 14:51:04;;;;;;;14.85;5.38;;;;;;;;;;5024555;28;20021;-64
2023/10/01 14:53:36;;;;;;;13.98;5.40;;;;;;;;;;5024683;28;20017;-64
2023/10/01 14:56:04;;;;;;;18.27;5.38;;;;;;;;;;5026598;28;20623;-66
2023/10/01 14:58:29;;;;;;;;;;;;;;;;;;5028849;28;20021;-65
2023/10/01 15:00:57;;;;;;;14.00;4.70;;;;;;;;;;5027686;28;20336;-64
2023/10/01 15:03:32;;;;;;;14.57;5.30;;;;;;;;;;5023097;28;20365;-64
2023/10/01 15:05:57;;;;;;;20.65;5.70;;;;;;;;;;5016978;28;20196;-66
2023/10/01 15:08:24;;;;;;;15.60;4.50;;;;;;;;;;5021568;28;20499;-65
2023/10/01 15:10:49;;;;;;;13.20;5.30;;;;;;;;;;5010115;28;20029;-65
2023/10/01 15:13:35;;;;;;;13.05;4.38;;;;;;;;;;5027872;28;20105;-65
2023/10/01 15:16:02;;;;;;;15.98;5.18;;;;;;;;;;5021019;28;20580;-66
2023/10/01 15:18:27;;;;;;;23.83;7.85;;;;;;;;;;5028391;28;20036;-66
2023/10/01 15:20:54;;;;;;;15.38;5.65;;;;;;;;;;5022337;28;20104;-66
2023/10/01 15:23:19;;;;;;;15.02;5.43;;;;;;;;;;5029114;28;20449;-65
2023/10/01 15:25:45;;;;;;;17.80;5.63;;;;;;;;;;5026419;28;20528;-66
2023/10/01 15:28:15;;;;;;;19.45;5.60;;;;;;;;;;5025824;28;20071;-66
2023/10/01 15:30:44;;;;;;;15.43;4.90;;;;;;;;;;5027588;28;20022;-64
2023/10/01 15:33:15;;;;;;;14.95;5.00;;;;;;;;;;5024259;28;20064;-65
2023/10/01 15:35:53;;;;;;;22.60;5.50;;;;;;;;;;5026194;28;20024;-63
2023/10/01 15:38:29;;;;;;;14.65;5.50;;;;;;;;;;5026371;28;20018;-67
2023/10/01 15:40:55;;;;;;;16.67;5.20;;;;;;;;;;5022896;28;20033;-67
2023/10/01 15:43:20;;;;;;;14.45;4.85;;;;;;;;;;5027703;28;20037;-66
2023/10/01 15:45:46;;;;;;;15.40;5.88;;;;;;;;;;5026956;28;20017;-65
2023/10/01 15:48:15;;;;;;;19.38;5.03;;;;;;;;;;5022508;28;20063;-63
2023/10/01 15:50:41;;;;;;;13.20;5.30;;;;;;;;;;5005837;28;20112;-66
2023/10/01 15:53:17;;;;;;;19.42;5.03;;;;;;;;;;5009300;28;20014;-66